Time;durP1;ratioP1;P1;durP2;ratioP2;P2;SDS_P1;SDS_P2;PMS_P1;PMS_P2;Temp;Humidity;BMP_temperature;BMP_pressure;BME280_temperature;BME280_humidity;BME280_pressure;Samples;Min_cycle;Max_cycle;Signal;HPM_P1;HPM_P2
2022/09/04 00:01:45;;;;;;;;;;;20.00;74.70;;;;;;5040868;28;20459;-69
2022/09/04 00:04:17;;;;;;;;;;;19.90;74.70;;;;;;5040936;28;19947;-69
2022/09/04 00:06:50;;;;;;;;;;;19.90;74.90;;;;;;5042340;28;19950;-69
2022/09/04 00:09:18;;;;;;;;;;;19.90;74.90;;;;;;5039495;28;19959;-69
2022/09/04 00:11:50;;;;;;;;;;;19.90;75.00;;;;;;5042996;28;19940;-69
2022/09/04 00:14:18;;;;;;;;;;;19.90;75.00;;;;;;5044555;28;19933;-69
2022/09/04 00:16:46;;;;;;;;;;;19.90;75.00;;;;;;5041758;28;19929;-69
2022/09/04 00:19:15;;;;;;;;;;;19.90;75.20;;;;;;5040785;28;19932;-69
2022/09/04 00:21:44;;;;;;;;;;;19.80;75.30;;;;;;5042898;28;19974;-69
2022/09/04 00:24:13;;;;;;;;;;;19.80;75.40;;;;;;5041177;28;19928;-69
2022/09/04 00:26:44;;;;;;;;;;;19.80;75.50;;;;;;5040012;28;19935;-69
2022/09/04 00:29:15;;;;;;;;;;;19.80;75.40;;;;;;5038894;28;19936;-69
2022/09/04 00:31:46;;;;;;;;;;;19.80;75.50;;;;;;5041351;28;20793;-69
2022/09/04 00:34:19;;;;;;;;;;;19.70;75.50;;;;;;5042145;28;20691;-69
2022/09/04 00:36:48;;;;;;;;;;;19.70;75.50;;;;;;5036433;28;19939;-69
2022/09/04 00:39:16;;;;;;;;;;;19.70;75.50;;;;;;5044198;28;19959;-68
2022/09/04 00:41:45;;;;;;;;;;;19.70;75.60;;;;;;5040719;28;20308;-69
2022/09/04 00:44:20;;;;;;;;;;;19.70;75.50;;;;;;5038395;28;19928;-69
2022/09/04 00:46:56;;;;;;;;;;;19.70;75.80;;;;;;5040422;28;20455;-68
2022/09/04 00:49:41;;;;;;;;;;;19.70;75.80;;;;;;5042030;28;20435;-69
2022/09/04 00:52:14;;;;;;;;;;;19.70;75.90;;;;;;5040453;28;20411;-68
2022/09/04 00:54:46;;;;;;;;;;;19.60;76.00;;;;;;5036339;28;19928;-69
2022/09/04 00:57:28;;;;;;;;;;;19.60;76.10;;;;;;5047934;28;19951;-69
2022/09/04 01:00:02;;;;;;;;;;;19.60;76.10;;;;;;5048639;28;19967;-68
2022/09/04 01:02:32;;;;;;;;;;;19.60;76.10;;;;;;5041277;28;19933;-68
2022/09/04 01:05:06;;;;;;;;;;;19.60;76.10;;;;;;5040118;28;19933;-68
2022/09/04 01:07:41;;;;;;;;;;;19.50;76.10;;;;;;5047952;28;20550;-68
2022/09/04 01:10:14;;;;;;;;;;;19.50;76.10;;;;;;5041968;28;20353;-68
2022/09/04 01:12:45;;;;;;;;;;;19.50;76.20;;;;;;5042398;28;19935;-69
2022/09/04 01:15:16;;;;;;;;;;;19.50;76.30;;;;;;5043515;28;19937;-69
2022/09/04 01:17:46;;;;;;;;;;;19.50;76.30;;;;;;5045763;28;20030;-69
2022/09/04 01:20:18;;;;;;;;;;;19.50;76.60;;;;;;5042095;28;20887;-69
2022/09/04 01:22:54;;;;;;;;;;;19.50;76.50;;;;;;5044503;28;19929;-68
2022/09/04 01:25:30;;;;;;;;;;;19.50;76.50;;;;;;5043234;28;19959;-69
2022/09/04 01:28:02;;;;;;;;;;;19.40;76.50;;;;;;5041983;28;19928;-69
2022/09/04 01:30:32;;;;;;;;;;;19.40;76.50;;;;;;5045695;28;19933;-68
2022/09/04 01:33:03;;;;;;;;;;;19.40;76.60;;;;;;5043984;28;19932;-69
2022/09/04 01:35:34;;;;;;;;;;;19.40;76.50;;;;;;5042773;28;19929;-68
2022/09/04 01:38:03;;;;;;;;;;;19.30;76.50;;;;;;5049453;28;19929;-69
2022/09/04 01:40:38;;;;;;;;;;;19.30;76.60;;;;;;5040689;28;20309;-69
2022/09/04 01:43:10;;;;;;;;;;;19.30;76.60;;;;;;5045371;28;19929;-69
2022/09/04 01:45:55;;;;;;;;;;;19.30;76.70;;;;;;5042309;28;19933;-68
2022/09/04 01:48:27;;;;;;;;;;;19.30;76.70;;;;;;5045407;28;19929;-69
2022/09/04 01:50:57;;;;;;;;;;;19.30;76.80;;;;;;5045007;28;19999;-69
2022/09/04 01:53:25;;;;;;;;;;;19.20;76.80;;;;;;5043285;28;19929;-69
2022/09/04 01:55:57;;;;;;;;;;;19.20;76.70;;;;;;5049676;28;20330;-69
2022/09/04 01:58:30;;;;;;;;;;;19.20;76.80;;;;;;5044656;28;20598;-68
2022/09/04 02:01:00;;;;;;;;;;;19.20;76.80;;;;;;5044796;28;20475;-69
2022/09/04 02:03:33;;;;;;;;;;;19.20;76.80;;;;;;5039981;28;20586;-68
2022/09/04 02:06:02;;;;;;;;;;;19.20;76.80;;;;;;5040224;28;19978;-68
2022/09/04 02:08:32;;;;;;;;;;;19.20;76.80;;;;;;5044744;28;20393;-68
2022/09/04 02:11:03;;;;;;;;;;;19.10;76.80;;;;;;5041961;28;19933;-68
2022/09/04 02:13:34;;;;;;;;;;;19.10;76.90;;;;;;5043612;28;19932;-68
2022/09/04 02:16:09;;;;;;;;;;;19.10;76.90;;;;;;5042182;28;19929;-69
2022/09/04 02:18:44;;;;;;;;;;;19.10;76.90;;;;;;5043972;28;19986;-69
2022/09/04 02:21:14;;;;;;;;;;;19.10;77.00;;;;;;5040859;28;19991;-68
2022/09/04 02:23:45;;;;;;;;;;;19.00;77.00;;;;;;5043406;28;19940;-68
2022/09/04 02:26:14;;;;;;;;;;;19.00;77.20;;;;;;5041246;28;19981;-69
2022/09/04 02:28:47;;;;;;;;;;;19.00;77.10;;;;;;5043211;28;19929;-69
2022/09/04 02:31:17;;;;;;;;;;;19.00;77.20;;;;;;5042320;28;20047;-69
2022/09/04 02:33:48;;;;;;;;;;;18.90;77.20;;;;;;5042553;28;20482;-68
2022/09/04 02:36:19;;;;;;;;;;;18.90;77.20;;;;;;5041961;28;19929;-69
2022/09/04 02:38:50;;;;;;;;;;;18.90;77.20;;;;;;5043997;28;19929;-68
2022/09/04 02:41:20;;;;;;;;;;;18.90;77.20;;;;;;5043115;28;20019;-69
2022/09/04 02:43:58;;;;;;;;;;;18.90;77.20;;;;;;5042055;28;19935;-68
2022/09/04 02:46:29;;;;;;;;;;;18.90;77.20;;;;;;5042440;28;19928;-69
2022/09/04 02:49:02;;;;;;;;;;;18.90;77.30;;;;;;5043900;28;19929;-68
2022/09/04 02:51:37;;;;;;;;;;;18.80;77.20;;;;;;5037543;28;20430;-68
2022/09/04 02:54:09;;;;;;;;;;;18.80;77.20;;;;;;5034400;28;19936;-69
2022/09/04 02:56:40;;;;;;;;;;;18.80;77.30;;;;;;5048528;28;19932;-66
2022/09/04 02:59:20;;;;;;;;;;;18.80;77.40;;;;;;5046148;28;20018;-69
2022/09/04 03:01:50;;;;;;;;;;;18.80;77.40;;;;;;5042672;28;20046;-69
2022/09/04 03:04:21;;;;;;;;;;;18.70;77.30;;;;;;5042564;28;20047;-68
2022/09/04 03:06:50;;;;;;;;;;;18.70;77.40;;;;;;5040459;28;19982;-68
2022/09/04 03:09:21;;;;;;;;;;;18.70;77.40;;;;;;5040225;28;19929;-68
2022/09/04 03:11:50;;;;;;;;;;;18.70;77.50;;;;;;5044228;28;20278;-70
2022/09/04 03:14:23;;;;;;;;;;;18.70;77.50;;;;;;5044721;28;20020;-68
2022/09/04 03:16:53;;;;;;;;;;;18.70;77.50;;;;;;5040576;28;19929;-69
2022/09/04 03:19:24;;;;;;;;;;;18.70;77.60;;;;;;5039881;28;19933;-69
2022/09/04 03:21:53;;;;;;;;;;;18.60;77.50;;;;;;5041419;28;19933;-68
2022/09/04 03:24:22;;;;;;;;;;;18.60;77.60;;;;;;5040811;28;19982;-68
2022/09/04 03:26:51;;;;;;;;;;;18.60;77.60;;;;;;5038922;28;19936;-68
2022/09/04 03:29:23;;;;;;;;;;;18.60;77.60;;;;;;5042267;28;19933;-69
2022/09/04 03:31:55;;;;;;;;;;;18.60;77.60;;;;;;5039693;28;19928;-68
2022/09/04 03:34:29;;;;;;;;;;;18.50;77.70;;;;;;5042925;28;19936;-69
2022/09/04 03:37:06;;;;;;;;;;;18.50;77.60;;;;;;5041186;28;19929;-69
2022/09/04 03:39:37;;;;;;;;;;;18.50;77.70;;;;;;5045022;28;19939;-68
2022/09/04 03:42:07;;;;;;;;;;;18.50;77.70;;;;;;5042045;28;19935;-69
2022/09/04 03:44:40;;;;;;;;;;;18.50;77.70;;;;;;5041080;28;19928;-69
2022/09/04 03:47:10;;;;;;;;;;;18.40;77.60;;;;;;5041898;28;19928;-68
2022/09/04 03:49:43;;;;;;;;;;;18.40;77.70;;;;;;5041306;28;19933;-69
2022/09/04 03:52:13;;;;;;;;;;;18.40;77.70;;;;;;5041609;28;20355;-69
2022/09/04 03:54:49;;;;;;;;;;;18.40;77.70;;;;;;5040722;28;19941;-68
2022/09/04 03:57:30;;;;;;;;;;;18.40;77.80;;;;;;5046072;28;19929;-69
2022/09/04 04:00:06;;;;;;;;;;;18.40;77.80;;;;;;5046439;28;19925;-68
2022/09/04 04:02:51;;;;;;;;;;;18.40;77.90;;;;;;5044363;28;19964;-68
2022/09/04 04:05:24;;;;;;;;;;;18.30;77.90;;;;;;5042217;28;19932;-68
2022/09/04 04:07:56;;;;;;;;;;;18.30;78.00;;;;;;5043214;28;19931;-69
2022/09/04 04:10:32;;;;;;;;;;;18.30;77.90;;;;;;5037393;28;20392;-68
2022/09/04 04:13:11;;;;;;;;;;;18.30;78.00;;;;;;5039533;28;20017;-67
2022/09/04 04:15:50;;;;;;;;;;;18.30;78.00;;;;;;5042136;28;20711;-69
2022/09/04 04:18:33;;;;;;;;;;;18.20;77.90;;;;;;5042107;28;20333;-68
2022/09/04 04:21:05;;;;;;;;;;;18.20;78.00;;;;;;5036869;28;20315;-68
2022/09/04 04:23:45;;;;;;;;;;;18.20;78.00;;;;;;5041638;28;19936;-68
2022/09/04 04:26:14;;;;;;;;;;;18.20;78.70;;;;;;5041760;28;19935;-68
2022/09/04 04:28:58;;;;;;;;;;;18.20;78.10;;;;;;5040625;28;19955;-69
2022/09/04 04:31:33;;;;;;;;;;;18.20;78.10;;;;;;5041652;28;19982;-68
2022/09/04 04:34:05;;;;;;;;;;;18.20;78.10;;;;;;5041879;28;19954;-68
2022/09/04 04:36:35;;;;;;;;;;;18.20;78.10;;;;;;5040463;28;19928;-68
2022/09/04 04:39:10;;;;;;;;;;;18.10;78.10;;;;;;5043672;28;19940;-68
2022/09/04 04:45:48;;;;;;;;;;;18.10;78.20;;;;;;5036602;28;20436;-69
2022/09/04 04:47:23;;;;;;;;;;;18.10;78.20;;;;;;5040035;28;19940;-69
2022/09/04 04:49:57;;;;;;;;;;;18.00;78.20;;;;;;5042989;28;19929;-68
2022/09/04 04:52:26;;;;;;;;;;;18.00;78.20;;;;;;5041472;28;19925;-68
2022/09/04 04:55:05;;;;;;;;;;;18.00;78.30;;;;;;5044039;28;20092;-68
2022/09/04 04:57:34;;;;;;;;;;;18.00;78.20;;;;;;5046036;28;19933;-69
2022/09/04 05:00:07;;;;;;;;;;;18.00;78.30;;;;;;5045146;28;20053;-68
2022/09/04 05:02:39;;;;;;;;;;;17.90;78.30;;;;;;5040403;28;19928;-69
2022/09/04 05:05:12;;;;;;;;;;;17.90;78.30;;;;;;5040695;28;19935;-68
2022/09/04 05:07:41;;;;;;;;;;;17.90;78.30;;;;;;5045131;28;19935;-69
2022/09/04 05:10:13;;;;;;;;;;;17.90;78.40;;;;;;5038662;28;20002;-68
2022/09/04 05:12:49;;;;;;;;;;;17.90;78.30;;;;;;5040369;28;19933;-68
2022/09/04 05:15:18;;;;;;;;;;;17.90;78.40;;;;;;5041212;28;19978;-68
2022/09/04 05:17:51;;;;;;;;;;;17.90;78.40;;;;;;5042162;28;19929;-69
2022/09/04 05:20:24;;;;;;;;;;;17.90;78.50;;;;;;5038431;28;20367;-68
2022/09/04 05:22:56;;;;;;;;;;;17.80;78.50;;;;;;5037891;28;20380;-69
2022/09/04 05:25:25;;;;;;;;;;;17.80;78.60;;;;;;5038439;28;19928;-69
2022/09/04 05:27:56;;;;;;;;;;;17.80;78.70;;;;;;5038845;28;19960;-69
2022/09/04 05:30:28;;;;;;;;;;;17.80;78.70;;;;;;5042160;28;19929;-68
2022/09/04 05:32:58;;;;;;;;;;;17.80;78.70;;;;;;5039853;28;19940;-68
2022/09/04 05:35:30;;;;;;;;;;;17.80;78.70;;;;;;5041077;28;19933;-69
2022/09/04 05:38:01;;;;;;;;;;;17.80;78.70;;;;;;5038408;28;19925;-68
2022/09/04 05:40:28;;;;;;;;;;;17.80;78.80;;;;;;5038879;28;19929;-69
2022/09/04 05:43:02;;;;;;;;;;;17.80;78.80;;;;;;5045402;28;20022;-68
2022/09/04 05:45:33;;;;;;;;;;;17.70;78.80;;;;;;5042501;28;19948;-69
2022/09/04 05:48:08;;;;;;;;;;;17.70;78.80;;;;;;5045311;28;20914;-68
2022/09/04 05:50:49;;;;;;;;;;;17.70;78.80;;;;;;5043842;28;19929;-69
2022/09/04 05:53:31;;;;;;;;;;;17.70;78.80;;;;;;5043002;28;20487;-69
2022/09/04 05:56:12;;;;;;;;;;;17.70;78.80;;;;;;5048588;28;19929;-69
2022/09/04 05:58:48;;;;;;;;;;;17.60;78.80;;;;;;5044387;28;20456;-69
2022/09/04 06:01:23;;;;;;;;;;;17.70;79.00;;;;;;5043751;28;19928;-69
2022/09/04 06:04:09;;;;;;;;;;;17.70;79.00;;;;;;5042716;28;19958;-69
2022/09/04 06:06:37;;;;;;;;;;;17.70;79.00;;;;;;5041763;28;19936;-68
2022/09/04 06:09:14;;;;;;;;;;;17.60;79.00;;;;;;5041954;28;19929;-69
2022/09/04 06:11:48;;;;;;;;;;;17.60;79.00;;;;;;5044445;28;20011;-69
2022/09/04 06:14:21;;;;;;;;;;;17.60;79.10;;;;;;5042907;28;19932;-69
2022/09/04 06:16:53;;;;;;;;;;;17.60;79.10;;;;;;5044179;28;19928;-68
2022/09/04 06:19:29;;;;;;;;;;;17.60;79.20;;;;;;5041382;28;19928;-69
2022/09/04 06:22:06;;;;;;;;;;;17.60;79.20;;;;;;5041097;28;20388;-68
2022/09/04 06:24:43;;;;;;;;;;;17.60;79.20;;;;;;5042124;28;19940;-69
2022/09/04 06:27:14;;;;;;;;;;;17.60;79.20;;;;;;5040151;28;19936;-68
2022/09/04 06:29:50;;;;;;;;;;;17.60;79.30;;;;;;5046372;28;19929;-69
2022/09/04 06:32:31;;;;;;;;;;;17.50;79.20;;;;;;5043154;28;20419;-69
2022/09/04 06:35:05;;;;;;;;;;;17.60;79.30;;;;;;5030520;28;19932;-68
2022/09/04 06:37:37;;;;;;;;;;;17.60;79.40;;;;;;5043805;28;19928;-67
2022/09/04 06:40:08;;;;;;;;;;;17.60;79.40;;;;;;5041221;28;19935;-69
2022/09/04 06:42:41;;;;;;;;;;;17.60;79.50;;;;;;5043522;28;19936;-69
2022/09/04 06:45:15;;;;;;;;;;;17.60;79.50;;;;;;5043732;28;19928;-68
2022/09/04 06:47:49;;;;;;;;;;;17.60;79.50;;;;;;5044092;28;19991;-69
2022/09/04 06:50:22;;;;;;;;;;;17.50;79.50;;;;;;5043091;28;19975;-69
2022/09/04 06:52:56;;;;;;;;;;;17.50;79.50;;;;;;5043019;28;19936;-69
2022/09/04 06:55:26;;;;;;;;;;;17.60;79.60;;;;;;5044273;28;20008;-69
2022/09/04 06:58:00;;;;;;;;;;;17.50;79.60;;;;;;5047044;28;19936;-68
2022/09/04 07:00:29;;;;;;;;;;;17.50;79.50;;;;;;5043228;28;19933;-69
2022/09/04 07:03:11;;;;;;;;;;;17.50;79.50;;;;;;5042362;28;20407;-69
2022/09/04 07:05:42;;;;;;;;;;;17.50;79.60;;;;;;5041433;28;19932;-69
2022/09/04 07:08:12;;;;;;;;;;;17.60;79.60;;;;;;5043296;28;19932;-69
2022/09/04 07:10:42;;;;;;;;;;;17.50;79.60;;;;;;5042591;28;19983;-69
2022/09/04 07:13:31;;;;;;;;;;;17.60;79.60;;;;;;5043449;28;19951;-68
2022/09/04 07:16:13;;;;;;;;;;;17.50;79.60;;;;;;5041360;28;20313;-67
2022/09/04 07:18:54;;;;;;;;;;;17.50;79.60;;;;;;5041377;28;19933;-69
2022/09/04 07:21:29;;;;;;;;;;;17.50;79.70;;;;;;5043885;28;19940;-69
2022/09/04 07:24:01;;;;;;;;;;;17.50;79.70;;;;;;5044224;28;20459;-69
2022/09/04 07:26:32;;;;;;;;;;;17.50;79.60;;;;;;5042304;28;19929;-69
2022/09/04 07:29:19;;;;;;;;;;;17.50;79.60;;;;;;5038628;28;19983;-69
2022/09/04 07:31:48;;;;;;;;;;;17.60;79.60;;;;;;5044062;28;19936;-69
2022/09/04 07:34:18;;;;;;;;;;;17.60;79.60;;;;;;5042140;28;19963;-69
2022/09/04 07:36:49;;;;;;;;;;;17.60;79.50;;;;;;5043195;28;20151;-69
2022/09/04 07:39:19;;;;;;;;;;;17.60;79.50;;;;;;5040500;28;19929;-68
2022/09/04 07:41:48;;;;;;;;;;;17.60;79.40;;;;;;5042160;28;19933;-70
2022/09/04 07:44:17;;;;;;;;;;;17.70;79.60;;;;;;5040847;28;19929;-67
2022/09/04 07:46:46;;;;;;;;;;;17.60;79.50;;;;;;5041242;28;19932;-69
2022/09/04 07:49:17;;;;;;;;;;;17.70;79.50;;;;;;5041811;28;19936;-69
2022/09/04 07:51:46;;;;;;;;;;;17.70;79.50;;;;;;5042342;28;19940;-69
2022/09/04 07:54:37;;;;;;;;;;;17.70;79.50;;;;;;5043192;28;19955;-68
2022/09/04 07:57:10;;;;;;;;;;;17.70;79.40;;;;;;5028145;28;20336;-69
2022/09/04 07:59:44;;;;;;;;;;;17.80;79.50;;;;;;5042810;28;19983;-69
2022/09/04 08:02:19;;;;;;;;;;;17.80;79.50;;;;;;5041717;28;20759;-69
2022/09/04 08:04:53;;;;;;;;;;;17.80;80.20;;;;;;5038813;28;19936;-69
2022/09/04 08:07:22;;;;;;;;;;;17.90;79.70;;;;;;5042975;28;20033;-68
2022/09/04 08:10:06;;;;;;;;;;;17.90;79.60;;;;;;5038371;28;19936;-69
2022/09/04 08:12:44;;;;;;;;;;;17.90;79.70;;;;;;5040086;28;19928;-69
2022/09/04 08:15:16;;;;;;;;;;;17.90;79.50;;;;;;5041088;28;20031;-69
2022/09/04 08:18:00;;;;;;;;;;;18.00;79.60;;;;;;5041714;28;20068;-69
2022/09/04 08:20:40;;;;;;;;;;;18.00;79.60;;;;;;5041816;28;20032;-69
2022/09/04 08:23:15;;;;;;;;;;;18.10;79.50;;;;;;5037700;28;19929;-69
2022/09/04 08:25:47;;;;;;;;;;;18.00;79.50;;;;;;5039987;28;19940;-68
2022/09/04 08:28:23;;;;;;;;;;;18.10;79.80;;;;;;5038112;28;20020;-69
2022/09/04 08:30:53;;;;;;;;;;;18.20;79.90;;;;;;5040956;28;20026;-68
2022/09/04 08:33:28;;;;;;;;;;;18.20;79.80;;;;;;5040138;28;19933;-69
2022/09/04 08:35:57;;;;;;;;;;;18.30;79.60;;;;;;5041350;28;19983;-69
2022/09/04 08:38:30;;;;;;;;;;;18.40;79.60;;;;;;5040086;28;19928;-69
2022/09/04 08:41:16;;;;;;;;;;;18.40;79.40;;;;;;5040282;28;19982;-69
2022/09/04 08:44:02;;;;;;;;;;;18.50;79.80;;;;;;5039376;28;20813;-69
2022/09/04 08:46:47;;;;;;;;;;;18.50;79.20;;;;;;5037309;28;19925;-69
2022/09/04 08:49:26;;;;;;;;;;;18.60;78.90;;;;;;5040620;28;19939;-69
2022/09/04 08:52:01;;;;;;;;;;;18.70;78.70;;;;;;5042176;28;19975;-69
2022/09/04 08:54:35;;;;;;;;;;;18.80;78.30;;;;;;5041334;28;19982;-69
2022/09/04 08:57:18;;;;;;;;;;;18.80;77.90;;;;;;5042123;28;19940;-69
2022/09/04 09:00:00;;;;;;;;;;;18.90;78.10;;;;;;5041712;28;19932;-69
2022/09/04 09:02:42;;;;;;;;;;;19.00;77.80;;;;;;5037139;28;19933;-69
2022/09/04 09:05:29;;;;;;;;;;;19.00;77.50;;;;;;5042215;28;19935;-69
2022/09/04 09:08:05;;;;;;;;;;;19.10;77.40;;;;;;5037667;28;20626;-68
2022/09/04 09:10:44;;;;;;;;;;;19.20;77.00;;;;;;5040133;28;19929;-69
2022/09/04 09:13:28;;;;;;;;;;;19.30;77.00;;;;;;5041798;28;19929;-68
2022/09/04 09:16:08;;;;;;;;;;;19.30;76.60;;;;;;5041629;28;21322;-68
2022/09/04 09:18:36;;;;;;;;;;;19.40;76.20;;;;;;5041750;28;19995;-69
2022/09/04 09:21:07;;;;;;;;;;;19.50;76.10;;;;;;5044561;28;19979;-69
2022/09/04 09:23:40;;;;;;;;;;;19.60;76.00;;;;;;5046230;28;20426;-69
2022/09/04 09:26:17;;;;;;;;;;;19.60;75.80;;;;;;5043882;28;19929;-69
2022/09/04 09:29:03;;;;;;;;;;;19.70;75.50;;;;;;5043467;28;19936;-67
2022/09/04 09:31:50;;;;;;;;;;;19.80;75.30;;;;;;5039386;28;19975;-67
2022/09/04 09:34:36;;;;;;;;;;;19.90;75.10;;;;;;5045767;28;19929;-68
2022/09/04 09:37:24;;;;;;;;;;;19.90;74.90;;;;;;5041967;28;20011;-69
2022/09/04 09:40:03;;;;;;;;;;;20.00;74.60;;;;;;5040700;28;19932;-69
2022/09/04 09:42:40;;;;;;;;;;;20.10;74.40;;;;;;5044826;28;19936;-69
2022/09/04 09:45:25;;;;;;;;;;;20.10;74.20;;;;;;5043664;28;19928;-68
2022/09/04 09:48:10;;;;;;;;;;;20.20;74.10;;;;;;5047703;28;20418;-69
2022/09/04 09:50:57;;;;;;;;;;;20.30;73.90;;;;;;5043137;28;19997;-69
2022/09/04 09:53:37;;;;;;;;;;;20.30;73.70;;;;;;5022516;28;19979;-69
2022/09/04 09:56:19;;;;;;;;;;;20.40;73.50;;;;;;5047134;28;19924;-68
2022/09/04 09:58:55;;;;;;;;;;;20.50;73.30;;;;;;5043140;28;19933;-69
2022/09/04 10:01:36;;;;;;;;;;;20.50;73.10;;;;;;5040816;28;19983;-69
2022/09/04 10:04:11;;;;;;;;;;;20.60;72.80;;;;;;5041839;28;19932;-70
2022/09/04 10:06:59;;;;;;;;;;;20.70;72.60;;;;;;5045453;28;19968;-69
2022/09/04 10:09:44;;;;;;;;;;;20.80;72.50;;;;;;5043701;28;19933;-69
2022/09/04 10:12:22;;;;;;;;;;;20.90;72.40;;;;;;5041894;28;19982;-69
2022/09/04 10:15:19;;;;;;;;;;;20.90;72.20;;;;;;5045269;28;20434;-68
2022/09/04 10:17:54;;;;;;;;;;;21.00;71.90;;;;;;5041958;28;19928;-68
2022/09/04 10:20:39;;;;;;;;;;;21.10;71.70;;;;;;5044374;28;19934;-68
2022/09/04 10:23:22;;;;;;;;;;;21.10;71.60;;;;;;5042749;28;19974;-69
2022/09/04 10:26:06;;;;;;;;;;;21.20;71.30;;;;;;5039168;28;20430;-69
2022/09/04 10:28:58;;;;;;;;;;;21.30;71.10;;;;;;5043396;28;20671;-69
2022/09/04 10:31:38;;;;;;;;;;;21.40;70.90;;;;;;5043285;28;20292;-68
2022/09/04 10:34:11;;;;;;;;;;;21.40;70.70;;;;;;5042105;28;19929;-68
2022/09/04 10:36:43;;;;;;;;;;;21.40;70.50;;;;;;5045728;28;19982;-68
2022/09/04 10:42:04;;;;;;;;;;;21.60;70.20;;;;;;5035290;28;19936;-67
2022/09/04 10:44:49;;;;;;;;;;;21.60;70.00;;;;;;5044180;28;20278;-69
2022/09/04 10:47:25;;;;;;;;;;;21.70;69.90;;;;;;5042627;28;19931;-69
2022/09/04 10:50:01;;;;;;;;;;;21.80;69.70;;;;;;5043632;28;20187;-69
2022/09/04 10:52:46;;;;;;;;;;;21.80;69.50;;;;;;5044507;28;19933;-68
2022/09/04 10:55:35;;;;;;;;;;;21.80;69.40;;;;;;5044140;28;20444;-69
2022/09/04 10:58:09;;;;;;;;;;;21.90;69.10;;;;;;5045155;28;20365;-68
2022/09/04 11:00:49;;;;;;;;;;;22.00;69.10;;;;;;5046157;28;19929;-68
2022/09/04 11:03:32;;;;;;;;;;;22.00;68.80;;;;;;5038863;28;19933;-69
2022/09/04 11:06:07;;;;;;;;;;;22.10;68.60;;;;;;5044236;28;19932;-68
2022/09/04 11:08:46;;;;;;;;;;;22.10;68.60;;;;;;5043121;28;20408;-68
2022/09/04 11:11:23;;;;;;;;;;;22.20;68.30;;;;;;5041899;28;19941;-68
2022/09/04 11:14:17;;;;;;;;;;;22.30;68.00;;;;;;5042829;28;20463;-69
2022/09/04 11:17:08;;;;;;;;;;;22.40;67.40;;;;;;4994825;28;19955;-69
2022/09/04 11:19:57;;;;;;;;;;;22.40;66.90;;;;;;5041422;28;19958;-69
2022/09/04 11:22:45;;;;;;;;;;;22.60;66.70;;;;;;5042495;28;19928;-68
2022/09/04 11:25:27;;;;;;;;;;;22.60;65.90;;;;;;5040231;28;20393;-68
2022/09/04 11:28:14;;;;;;;;;;;22.80;65.80;;;;;;5043582;28;20772;-69
2022/09/04 11:30:52;;;;;;;;;;;22.80;65.40;;;;;;5009564;28;20225;-68
2022/09/04 11:33:44;;;;;;;;;;;22.90;65.40;;;;;;5041570;28;19940;-68
2022/09/04 11:36:26;;;;;;;;;;;23.00;64.90;;;;;;5040927;28;19928;-68
2022/09/04 11:39:08;;;;;;;;;;;23.10;63.90;;;;;;5035683;28;19933;-69
2022/09/04 11:41:50;;;;;;;;;;;23.20;64.40;;;;;;5040668;28;19937;-69
2022/09/04 11:44:38;;;;;;;;;;;23.30;64.40;;;;;;5042648;28;20395;-69
2022/09/04 11:47:18;;;;;;;;;;;23.30;63.60;;;;;;5040843;28;20411;-69
2022/09/04 11:49:53;;;;;;;;;;;23.40;64.00;;;;;;5040859;28;19940;-69
2022/09/04 11:52:27;;;;;;;;;;;23.50;62.90;;;;;;5042340;28;19936;-68
2022/09/04 11:55:07;;;;;;;;;;;23.50;62.60;;;;;;5040070;28;19929;-69
2022/09/04 11:57:39;;;;;;;;;;;23.60;61.90;;;;;;5042138;28;19929;-69
2022/09/04 12:00:10;;;;;;;;;;;23.70;62.10;;;;;;5040333;28;19936;-68
2022/09/04 12:02:46;;;;;;;;;;;23.70;62.00;;;;;;5039570;28;19932;-68
2022/09/04 12:05:18;;;;;;;;;;;23.80;61.80;;;;;;5041352;28;20039;-68
2022/09/04 12:07:54;;;;;;;;;;;23.90;61.60;;;;;;5042271;28;19968;-69
2022/09/04 12:10:27;;;;;;;;;;;24.00;61.10;;;;;;5038653;28;19944;-68
2022/09/04 12:13:06;;;;;;;;;;;24.00;61.20;;;;;;5042892;28;19931;-68
2022/09/04 12:15:53;;;;;;;;;;;24.00;61.00;;;;;;5041617;28;19924;-68
2022/09/04 12:18:53;;;;;;;;;;;24.10;60.70;;;;;;5038725;28;19933;-68
2022/09/04 12:21:36;;;;;;;;;;;24.20;60.50;;;;;;5041818;28;19967;-68
2022/09/04 12:24:13;;;;;;;;;;;24.20;60.00;;;;;;5038022;28;19933;-69
2022/09/04 12:26:51;;;;;;;;;;;24.30;59.40;;;;;;5044495;28;19933;-68
2022/09/04 12:29:25;;;;;;;;;;;24.40;59.20;;;;;;5040825;28;19932;-68
2022/09/04 12:32:10;;;;;;;;;;;24.40;59.50;;;;;;5041461;28;20051;-69
2022/09/04 12:34:44;;;;;;;;;;;24.50;58.80;;;;;;5001330;28;19935;-68
2022/09/04 12:37:25;;;;;;;;;;;24.60;59.30;;;;;;5040514;28;19935;-69
2022/09/04 12:40:07;;;;;;;;;;;24.60;59.10;;;;;;5040197;28;19951;-68
2022/09/04 12:42:37;;;;;;;;;;;24.70;58.50;;;;;;5034595;28;19921;-68
2022/09/04 12:45:09;;;;;;;;;;;24.70;58.10;;;;;;5042532;28;19936;-68
2022/09/04 12:47:44;;;;;;;;;;;24.70;56.90;;;;;;5040962;28;19932;-68
2022/09/04 12:50:27;;;;;;;;;;;24.80;57.30;;;;;;5041277;28;20393;-69
2022/09/04 12:53:03;;;;;;;;;;;25.00;53.80;;;;;;5043716;28;20024;-69
2022/09/04 12:55:34;;;;;;;;;;;25.80;52.70;;;;;;5049944;28;19935;-68
2022/09/04 12:58:08;;;;;;;;;;;26.20;51.30;;;;;;5049510;28;20383;-68
2022/09/04 13:00:40;;;;;;;;;;;26.30;51.40;;;;;;5052266;28;19928;-68
2022/09/04 13:03:13;;;;;;;;;;;26.20;52.20;;;;;;5038463;28;20624;-69
2022/09/04 13:05:46;;;;;;;;;;;26.10;53.50;;;;;;5048594;28;20487;-70
2022/09/04 13:08:19;;;;;;;;;;;25.90;53.20;;;;;;5047483;28;20450;-69
2022/09/04 13:10:52;;;;;;;;;;;25.90;53.80;;;;;;5044288;28;19956;-69
2022/09/04 13:13:24;;;;;;;;;;;25.80;54.10;;;;;;5046496;28;19932;-69
2022/09/04 13:15:56;;;;;;;;;;;25.70;53.90;;;;;;5045783;28;19929;-69
2022/09/04 13:18:32;;;;;;;;;;;25.70;54.00;;;;;;5037716;28;19967;-69
2022/09/04 13:21:02;;;;;;;;;;;25.70;53.80;;;;;;5045870;28;19933;-69
2022/09/04 13:23:37;;;;;;;;;;;25.70;54.30;;;;;;5046914;28;19932;-69
2022/09/04 13:26:15;;;;;;;;;;;25.70;54.60;;;;;;5045568;28;19932;-69
2022/09/04 13:28:50;;;;;;;;;;;25.70;54.20;;;;;;5046536;28;20423;-69
2022/09/04 13:31:27;;;;;;;;;;;25.70;54.70;;;;;;5045307;28;20416;-69
2022/09/04 13:34:00;;;;;;;;;;;25.80;54.60;;;;;;5044758;28;19968;-69
2022/09/04 13:36:34;;;;;;;;;;;25.80;54.60;;;;;;5044810;28;19975;-68
2022/09/04 13:39:15;;;;;;;;;;;25.80;54.00;;;;;;5046421;28;19929;-69
2022/09/04 13:41:54;;;;;;;;;;;25.90;54.40;;;;;;5040537;28;20772;-69
2022/09/04 13:44:37;;;;;;;;;;;25.90;54.80;;;;;;5048417;28;19928;-69
2022/09/04 13:47:06;;;;;;;;;;;25.90;54.40;;;;;;5043460;28;19932;-69
2022/09/04 13:49:38;;;;;;;;;;;26.00;54.40;;;;;;5045509;28;19933;-69
2022/09/04 13:52:06;;;;;;;;;;;26.00;53.10;;;;;;5044755;28;19933;-69
2022/09/04 13:54:34;;;;;;;;;;;26.10;54.10;;;;;;5045853;28;19928;-70
2022/09/04 13:57:04;;;;;;;;;;;26.20;55.10;;;;;;5052113;28;19936;-69
2022/09/04 13:59:33;;;;;;;;;;;26.20;54.50;;;;;;5049505;28;19959;-69
2022/09/04 14:02:03;;;;;;;;;;;26.20;53.90;;;;;;5044451;28;19929;-68
2022/09/04 14:04:32;;;;;;;;;;;26.30;52.60;;;;;;5046277;28;20213;-69
2022/09/04 14:07:05;;;;;;;;;;;26.30;54.10;;;;;;5048269;28;19929;-69
2022/09/04 14:09:33;;;;;;;;;;;26.30;53.40;;;;;;5042098;28;19929;-69
2022/09/04 14:12:06;;;;;;;;;;;26.40;53.80;;;;;;5045224;28;19931;-68
2022/09/04 14:14:44;;;;;;;;;;;26.40;53.10;;;;;;5046754;28;20677;-69
2022/09/04 14:17:11;;;;;;;;;;;26.50;53.60;;;;;;5038465;28;19929;-68
2022/09/04 14:19:43;;;;;;;;;;;26.60;53.60;;;;;;5044519;28;20373;-68
2022/09/04 14:22:14;;;;;;;;;;;26.60;53.20;;;;;;5046696;28;19928;-69
2022/09/04 14:24:44;;;;;;;;;;;26.60;52.90;;;;;;5043024;28;20011;-69
2022/09/04 14:27:13;;;;;;;;;;;26.70;53.10;;;;;;5046166;28;19947;-69
2022/09/04 14:29:47;;;;;;;;;;;26.70;53.60;;;;;;5043924;28;20037;-69
2022/09/04 14:32:21;;;;;;;;;;;26.80;53.00;;;;;;5043928;28;19936;-69
2022/09/04 14:34:52;;;;;;;;;;;26.90;52.70;;;;;;5042650;28;19936;-69
2022/09/04 14:37:34;;;;;;;;;;;26.90;52.60;;;;;;5044698;28;19971;-68
2022/09/04 14:40:04;;;;;;;;;;;26.90;51.70;;;;;;5047369;28;19933;-69
2022/09/04 14:42:41;;;;;;;;;;;27.00;52.20;;;;;;5044370;28;19928;-69
2022/09/04 14:45:15;;;;;;;;;;;27.00;51.90;;;;;;5047175;28;19928;-68
2022/09/04 14:47:46;;;;;;;;;;;27.10;53.20;;;;;;5038625;28;20853;-69
2022/09/04 14:50:14;;;;;;;;;;;27.10;52.20;;;;;;5041961;28;20006;-70
2022/09/04 14:52:42;;;;;;;;;;;27.20;51.00;;;;;;5044647;28;20312;-69
2022/09/04 14:55:12;;;;;;;;;;;27.20;51.00;;;;;;5047771;28;19936;-69
2022/09/04 14:57:42;;;;;;;;;;;27.20;50.60;;;;;;5050503;28;19932;-69
2022/09/04 15:00:10;;;;;;;;;;;27.30;52.40;;;;;;5047674;28;19932;-69
2022/09/04 15:02:41;;;;;;;;;;;27.30;52.70;;;;;;5038310;28;19929;-69
2022/09/04 15:05:14;;;;;;;;;;;27.30;52.00;;;;;;5043386;28;19929;-69
2022/09/04 15:07:51;;;;;;;;;;;27.30;51.80;;;;;;5048163;28;19928;-69